createdAt,value
2019-01-29T00:01:41.570Z,14.10
2019-01-29T00:06:34.352Z,9.77
2019-01-29T00:11:27.260Z,15.70
2019-01-29T00:16:20.050Z,9.47
2019-01-29T00:21:12.888Z,9.33
2019-01-29T00:26:05.760Z,12.77
2019-01-29T00:30:58.803Z,13.27
2019-01-29T00:35:51.678Z,14.03
2019-01-29T00:40:44.494Z,11.57
2019-01-29T00:45:37.332Z,10.77
2019-01-29T00:50:30.140Z,11.67
2019-01-29T00:55:23.220Z,16.27
2019-01-29T01:00:19.195Z,12.97
2019-01-29T01:05:12.581Z,12.17
2019-01-29T01:10:10.132Z,17.43
2019-01-29T01:15:04.088Z,11.67
2019-01-29T01:19:56.932Z,12.30
2019-01-29T01:24:49.789Z,16.00
2019-01-29T01:29:42.619Z,12.73
2019-01-29T01:34:35.564Z,11.03
2019-01-29T01:39:28.437Z,11.67
2019-01-29T01:44:21.268Z,13.13
2019-01-29T01:49:14.126Z,16.43
2019-01-29T01:54:06.959Z,15.33
2019-01-29T01:58:59.829Z,14.97
2019-01-29T02:03:52.671Z,11.33
2019-01-29T02:08:45.526Z,17.37
2019-01-29T02:13:38.353Z,10.40
2019-01-29T02:18:31.168Z,8.33
2019-01-29T02:23:24.056Z,10.23
2019-01-29T02:28:16.916Z,10.60
2019-01-29T02:33:09.691Z,9.93
2019-01-29T02:38:02.671Z,10.40
2019-01-29T02:42:55.495Z,8.70
2019-01-29T02:47:48.547Z,9.93
2019-01-29T02:52:41.387Z,9.93
2019-01-29T02:57:34.245Z,10.17
2019-01-29T03:02:27.060Z,9.27
2019-01-29T03:07:19.863Z,7.73
2019-01-29T03:12:12.737Z,8.73
2019-01-29T03:17:05.593Z,8.57
2019-01-29T03:21:58.440Z,6.77
2019-01-29T03:26:51.261Z,9.07
2019-01-29T03:31:44.117Z,8.20
2019-01-29T03:36:36.952Z,6.47
2019-01-29T03:41:30.840Z,6.73
2019-01-29T03:46:23.672Z,5.97
2019-01-29T03:51:16.492Z,8.50
2019-01-29T03:56:09.342Z,5.70
2019-01-29T04:01:02.209Z,9.80
2019-01-29T04:05:55.030Z,8.93
2019-01-29T04:10:47.910Z,10.53
2019-01-29T04:15:40.717Z,9.33
2019-01-29T04:20:33.607Z,11.67
2019-01-29T04:25:26.416Z,9.87
2019-01-29T04:30:21.257Z,12.23
2019-01-29T04:35:14.198Z,11.13
2019-01-29T04:40:09.877Z,11.43
2019-01-29T04:45:03.974Z,8.37
2019-01-29T04:49:56.857Z,12.77
2019-01-29T04:54:49.655Z,9.47
2019-01-29T04:59:42.481Z,8.67
2019-01-29T05:04:35.397Z,9.33
2019-01-29T05:09:28.237Z,12.07
2019-01-29T05:14:21.038Z,9.97
2019-01-29T05:19:13.905Z,12.23
2019-01-29T05:24:07.328Z,13.77
2019-01-29T05:29:00.415Z,11.17
2019-01-29T05:33:53.280Z,14.57
2019-01-29T05:38:46.113Z,13.10
2019-01-29T05:43:38.989Z,13.63
2019-01-29T05:48:31.871Z,10.60
2019-01-29T05:53:24.726Z,15.83
2019-01-29T05:58:17.572Z,10.73
2019-01-29T06:03:10.405Z,10.33
2019-01-29T06:08:05.157Z,14.87
2019-01-29T06:12:58.003Z,12.53
2019-01-29T06:17:51.054Z,10.93
2019-01-29T06:22:43.879Z,12.17
2019-01-29T06:27:36.705Z,12.07
2019-01-29T06:32:29.632Z,13.77
2019-01-29T06:37:22.579Z,13.67
2019-01-29T06:42:15.399Z,13.67
2019-01-29T06:47:08.241Z,13.17
2019-01-29T06:52:01.104Z,13.40
2019-01-29T06:56:53.906Z,15.57
2019-01-29T07:01:46.758Z,15.43
2019-01-29T07:06:39.581Z,12.03
2019-01-29T07:11:32.470Z,14.23
2019-01-29T07:16:50.738Z,12.23
2019-01-29T07:21:43.568Z,13.50
2019-01-29T07:26:36.416Z,13.67
2019-01-29T07:31:29.242Z,14.80
2019-01-29T07:36:22.108Z,18.17
2019-01-29T07:41:14.931Z,14.50
2019-01-29T07:46:09.072Z,17.23
2019-01-29T07:51:01.923Z,16.97
2019-01-29T07:55:59.039Z,16.47
2019-01-29T08:00:51.871Z,16.30
2019-01-29T08:05:45.446Z,17.33
2019-01-29T08:10:38.561Z,17.60
2019-01-29T08:15:31.425Z,19.23
2019-01-29T08:20:24.359Z,17.03
2019-01-29T08:25:17.181Z,19.80
2019-01-29T08:30:10.510Z,20.23
2019-01-29T08:35:04.362Z,20.83
2019-01-29T08:39:57.228Z,24.20
2019-01-29T08:44:50.106Z,21.57
2019-01-29T08:49:43.364Z,23.63
2019-01-29T08:54:36.469Z,25.97
2019-01-29T08:59:29.407Z,20.37
2019-01-29T09:04:22.685Z,17.40
2019-01-29T09:09:15.558Z,17.87
2019-01-29T09:14:08.727Z,16.07
2019-01-29T09:19:01.926Z,15.90
2019-01-29T09:23:55.393Z,18.87
2019-01-29T09:28:48.592Z,18.83
2019-01-29T09:33:41.564Z,19.47
2019-01-29T09:38:34.755Z,28.07
2019-01-29T09:43:27.669Z,21.50
2019-01-29T09:48:20.561Z,14.80
2019-01-29T09:53:13.574Z,15.93
2019-01-29T09:58:06.469Z,16.63
2019-01-29T10:02:59.320Z,14.87
2019-01-29T10:07:52.315Z,13.23
2019-01-29T10:12:45.172Z,13.20
2019-01-29T10:17:38.515Z,11.93
2019-01-29T10:22:31.473Z,10.13
2019-01-29T10:27:24.724Z,12.80
2019-01-29T10:32:17.664Z,8.40
2019-01-29T10:37:10.597Z,7.10
2019-01-29T10:42:05.958Z,6.87
2019-01-29T10:46:59.132Z,6.37
2019-01-29T10:51:52.068Z,8.03
2019-01-29T10:56:44.918Z,9.70
2019-01-29T11:01:37.865Z,8.00
2019-01-29T11:06:30.765Z,7.60
2019-01-29T11:11:23.622Z,4.87
2019-01-29T11:16:16.583Z,6.30
2019-01-29T11:21:09.419Z,6.50
2019-01-29T11:26:02.373Z,8.37
2019-01-29T11:30:55.221Z,6.73
2019-01-29T11:35:48.145Z,6.23
2019-01-29T11:40:41.543Z,6.00
2019-01-29T11:45:44.544Z,8.80
2019-01-29T11:50:37.533Z,7.23
2019-01-29T11:55:30.405Z,7.80
2019-01-29T12:00:32.876Z,4.23
2019-01-29T12:05:25.855Z,6.30
2019-01-29T12:10:19.144Z,5.23
2019-01-29T12:15:14.292Z,5.03
2019-01-29T12:20:09.929Z,5.97
2019-01-29T12:25:03.330Z,7.53
2019-01-29T12:29:56.195Z,3.80
2019-01-29T12:34:49.120Z,4.70
2019-01-29T12:39:42.081Z,6.07
2019-01-29T12:44:34.889Z,3.33
2019-01-29T12:49:27.913Z,4.90
2019-01-29T12:54:20.764Z,9.43
2019-01-29T12:59:13.603Z,7.50
2019-01-29T13:04:06.506Z,3.60
2019-01-29T13:08:59.381Z,5.87
2019-01-29T13:13:52.304Z,7.03
2019-01-29T13:18:45.190Z,3.10
2019-01-29T13:23:38.077Z,7.33
2019-01-29T13:28:31.189Z,5.47
2019-01-29T13:33:24.203Z,6.63
2019-01-29T13:38:17.240Z,5.70
2019-01-29T13:43:10.180Z,6.27
2019-01-29T13:48:03.799Z,8.80
2019-01-29T13:52:56.771Z,3.20
2019-01-29T13:57:49.648Z,4.97
2019-01-29T14:02:42.809Z,7.27
2019-01-29T14:07:35.740Z,5.47
2019-01-29T14:12:28.775Z,5.13
2019-01-29T14:17:21.801Z,6.23
2019-01-29T14:22:14.767Z,7.97
2019-01-29T14:27:07.777Z,6.73
2019-01-29T14:32:00.754Z,6.83
2019-01-29T14:36:53.578Z,6.73
2019-01-29T14:41:46.681Z,8.73
2019-01-29T14:46:39.664Z,7.87
2019-01-29T14:51:32.742Z,5.97
2019-01-29T14:56:25.815Z,5.60
2019-01-29T15:01:19.301Z,7.70
2019-01-29T15:06:12.628Z,6.20
2019-01-29T15:11:05.597Z,7.67
2019-01-29T15:16:06.854Z,8.77
2019-01-29T15:20:59.708Z,6.43
2019-01-29T15:25:52.734Z,7.83
2019-01-29T15:30:45.730Z,8.87
2019-01-29T15:35:38.661Z,7.33
2019-01-29T15:40:32.015Z,8.30
2019-01-29T15:45:25.007Z,6.03
2019-01-29T15:50:20.377Z,6.53
2019-01-29T15:55:14.479Z,4.90
2019-01-29T16:00:22.942Z,6.27
2019-01-29T16:05:20.211Z,5.57
2019-01-29T16:10:17.031Z,4.60
2019-01-29T16:15:12.637Z,6.07
2019-01-29T16:20:07.043Z,7.20
2019-01-29T16:24:59.949Z,5.27
2019-01-29T16:29:57.812Z,9.87
2019-01-29T16:34:50.633Z,5.67
2019-01-29T16:39:43.718Z,6.07
2019-01-29T16:44:36.662Z,7.67
2019-01-29T16:49:29.497Z,9.07
2019-01-29T16:54:22.546Z,9.67
2019-01-29T16:59:15.362Z,7.03
2019-01-29T17:04:08.185Z,7.13
2019-01-29T17:09:01.240Z,6.57
2019-01-29T17:13:54.078Z,5.43
2019-01-29T17:18:46.951Z,5.30
2019-01-29T17:23:39.880Z,7.33
2019-01-29T17:28:32.751Z,7.03
2019-01-29T17:33:25.870Z,7.50
2019-01-29T17:38:18.831Z,7.63
2019-01-29T17:43:11.741Z,5.97
2019-01-29T17:48:05.463Z,6.20
2019-01-29T17:52:58.425Z,11.43
2019-01-29T17:57:51.315Z,7.13
2019-01-29T18:02:44.153Z,7.27
2019-01-29T18:07:37.069Z,6.60
2019-01-29T18:12:29.928Z,7.50
2019-01-29T18:17:22.931Z,7.00
2019-01-29T18:22:15.818Z,12.07
2019-01-29T18:27:08.731Z,8.23
2019-01-29T18:32:01.606Z,5.57
2019-01-29T18:36:54.517Z,5.93
2019-01-29T18:41:47.433Z,6.57
2019-01-29T18:46:40.396Z,6.87
2019-01-29T18:51:33.332Z,11.30
2019-01-29T18:56:26.330Z,8.13
2019-01-29T19:01:19.273Z,13.00
2019-01-29T19:06:13.772Z,8.87
2019-01-29T19:11:07.894Z,9.23
2019-01-29T19:16:00.845Z,8.77
2019-01-29T19:20:53.812Z,10.47
2019-01-29T19:25:46.859Z,9.37
2019-01-29T19:30:39.723Z,11.90
2019-01-29T19:35:32.660Z,11.07
2019-01-29T19:40:25.500Z,9.67
2019-01-29T19:45:24.840Z,13.90
2019-01-29T19:50:20.775Z,11.90
2019-01-29T19:55:13.648Z,9.80
2019-01-29T20:00:13.777Z,13.40
2019-01-29T20:05:07.823Z,7.77
2019-01-29T20:10:00.799Z,7.27
2019-01-29T20:14:53.722Z,8.10
2019-01-29T20:19:46.687Z,9.77
2019-01-29T20:24:39.576Z,10.73
2019-01-29T20:29:32.442Z,13.43
2019-01-29T20:34:25.296Z,9.53
2019-01-29T20:39:18.230Z,7.10
2019-01-29T20:44:11.112Z,8.20
2019-01-29T20:49:03.975Z,8.43
2019-01-29T20:53:56.988Z,9.73
2019-01-29T20:58:52.636Z,8.70
2019-01-29T21:03:44.694Z,8.10
2019-01-29T21:08:37.620Z,7.57
2019-01-29T21:13:30.461Z,6.20
2019-01-29T21:18:23.457Z,8.27
2019-01-29T21:23:16.370Z,6.97
2019-01-29T21:28:09.233Z,7.13
2019-01-29T21:33:02.086Z,7.10
2019-01-29T21:37:54.937Z,6.30
2019-01-29T21:42:47.885Z,5.87
2019-01-29T21:47:40.690Z,5.33
2019-01-29T21:52:33.520Z,7.47
2019-01-29T21:57:26.345Z,6.17
2019-01-29T22:02:19.198Z,10.00
2019-01-29T22:07:12.031Z,7.90
2019-01-29T22:12:04.882Z,8.07
2019-01-29T22:16:57.676Z,8.17
2019-01-29T22:21:50.550Z,11.60
2019-01-29T22:26:43.389Z,9.90
2019-01-29T22:31:36.233Z,9.47
2019-01-29T22:36:29.387Z,10.87
2019-01-29T22:41:22.242Z,10.23
2019-01-29T22:46:15.103Z,10.63
2019-01-29T22:51:07.928Z,11.90
2019-01-29T22:56:01.017Z,7.87
2019-01-29T23:01:37.990Z,13.77
2019-01-29T23:06:56.415Z,10.97
2019-01-29T23:11:51.075Z,12.17
2019-01-29T23:16:44.695Z,11.20
2019-01-29T23:21:38.317Z,9.67
2019-01-29T23:26:31.765Z,10.03
2019-01-29T23:31:25.271Z,12.83
2019-01-29T23:36:18.361Z,11.73
2019-01-29T23:41:12.594Z,14.50
2019-01-29T23:46:09.451Z,10.63
2019-01-29T23:51:02.322Z,9.70
2019-01-29T23:55:55.955Z,10.23
